createdAt,value
2022-12-19T00:01:58.662Z,35.83
2022-12-19T00:04:26.563Z,36.75
2022-12-19T00:06:54.464Z,36.75
2022-12-19T00:09:22.009Z,35.78
2022-12-19T00:11:52.222Z,37.55
2022-12-19T00:14:20.114Z,36.15
2022-12-19T00:16:48.499Z,36.95
2022-12-19T00:19:16.673Z,37.53
2022-12-19T00:21:44.802Z,40.63
2022-12-19T00:24:21.404Z,38.10
2022-12-19T00:26:50.501Z,43.25
2022-12-19T00:29:18.172Z,43.67
2022-12-19T00:31:46.056Z,38.20
2022-12-19T00:34:13.632Z,39.30
2022-12-19T00:36:41.805Z,39.55
2022-12-19T00:39:11.269Z,39.17
2022-12-19T00:41:45.120Z,42.35
2022-12-19T00:44:16.902Z,40.95
2022-12-19T00:46:52.744Z,39.33
2022-12-19T00:49:21.514Z,39.55
2022-12-19T00:51:49.395Z,40.55
2022-12-19T00:54:17.011Z,43.28
2022-12-19T00:56:47.711Z,42.40
2022-12-19T00:59:15.621Z,42.38
2022-12-19T01:01:47.463Z,42.35
2022-12-19T01:04:28.234Z,42.00
2022-12-19T01:07:02.375Z,43.88
2022-12-19T01:09:32.613Z,43.78
2022-12-19T01:12:18.901Z,41.78
2022-12-19T01:14:48.516Z,42.55
2022-12-19T01:17:16.516Z,44.97
2022-12-19T01:19:45.026Z,45.30
2022-12-19T01:22:14.380Z,48.20
2022-12-19T01:24:42.625Z,44.53
2022-12-19T01:27:10.363Z,44.50
2022-12-19T01:29:45.541Z,43.42
2022-12-19T01:32:21.133Z,47.30
2022-12-19T01:34:48.726Z,44.58
2022-12-19T01:37:19.136Z,42.95
2022-12-19T01:39:47.159Z,41.75
2022-12-19T01:42:23.587Z,45.38
2022-12-19T01:45:13.365Z,43.30
2022-12-19T01:48:08.102Z,44.40
2022-12-19T01:51:00.997Z,43.63
2022-12-19T01:53:47.455Z,46.63
2022-12-19T01:56:26.666Z,46.72
2022-12-19T01:59:06.591Z,43.28
2022-12-19T02:01:37.302Z,42.83
2022-12-19T02:04:18.706Z,46.10
2022-12-19T02:06:46.581Z,44.38
2022-12-19T02:09:14.142Z,47.63
2022-12-19T02:11:41.685Z,46.35
2022-12-19T02:14:09.233Z,46.33
2022-12-19T02:17:19.231Z,45.03
2022-12-19T02:19:59.894Z,47.55
2022-12-19T02:22:43.194Z,44.78
2022-12-19T02:25:44.768Z,42.83
2022-12-19T02:29:01.669Z,44.88
2022-12-19T02:31:37.108Z,45.55
2022-12-19T02:34:26.823Z,47.65
2022-12-19T02:37:02.936Z,44.92
2022-12-19T02:39:57.071Z,45.85
2022-12-19T02:42:48.670Z,44.58
2022-12-19T02:45:22.687Z,43.38
2022-12-19T02:48:03.302Z,44.65
2022-12-19T02:50:42.496Z,42.47
2022-12-19T02:53:15.768Z,42.53
2022-12-19T02:56:14.982Z,41.33
2022-12-19T02:59:17.062Z,43.15
2022-12-19T03:01:57.478Z,41.65
2022-12-19T03:04:57.998Z,39.67
2022-12-19T03:07:42.913Z,41.33
2022-12-19T03:10:44.287Z,42.75
2022-12-19T03:13:46.807Z,42.60
2022-12-19T03:16:15.452Z,45.33
2022-12-19T03:18:43.728Z,43.47
2022-12-19T03:21:25.096Z,43.67
2022-12-19T03:23:56.509Z,42.88
2022-12-19T03:26:29.474Z,43.00
2022-12-19T03:29:01.677Z,42.05
2022-12-19T03:31:32.728Z,44.17
2022-12-19T03:34:44.277Z,42.78
2022-12-19T03:37:21.519Z,43.45
2022-12-19T03:39:55.692Z,46.20
2022-12-19T03:45:18.203Z,42.65
2022-12-19T03:47:51.962Z,41.20
2022-12-19T03:50:20.036Z,41.30
2022-12-19T03:53:05.213Z,46.05
2022-12-19T03:55:59.273Z,41.15
2022-12-19T03:58:37.746Z,43.50
2022-12-19T04:01:07.911Z,41.72
2022-12-19T04:03:36.540Z,43.22
2022-12-19T04:06:05.951Z,44.58
2022-12-19T04:08:35.730Z,43.95
2022-12-19T04:11:10.466Z,44.70
2022-12-19T04:13:49.969Z,42.38
2022-12-19T04:16:40.794Z,45.28
2022-12-19T04:19:33.115Z,44.50
2022-12-19T04:22:12.502Z,45.50
2022-12-19T04:24:43.750Z,41.90
2022-12-19T04:27:13.531Z,42.88
2022-12-19T04:29:41.882Z,43.10
2022-12-19T04:32:10.556Z,43.97
2022-12-19T04:34:42.743Z,44.20
2022-12-19T04:37:11.673Z,41.88
2022-12-19T04:39:39.586Z,43.28
2022-12-19T04:42:07.064Z,43.70
2022-12-19T04:44:34.518Z,41.72
2022-12-19T04:47:02.078Z,44.30
2022-12-19T04:49:29.688Z,44.97
2022-12-19T04:51:57.279Z,41.60
2022-12-19T04:54:24.776Z,42.42
2022-12-19T04:56:54.380Z,42.53
2022-12-19T04:59:21.842Z,41.38
2022-12-19T05:01:49.440Z,43.45
2022-12-19T05:04:17.222Z,42.00
2022-12-19T05:06:44.753Z,41.05
2022-12-19T05:09:13.165Z,42.70
2022-12-19T05:11:40.609Z,44.38
2022-12-19T05:14:08.209Z,41.38
2022-12-19T05:16:36.171Z,43.20
2022-12-19T05:19:03.855Z,40.75
2022-12-19T05:21:31.356Z,42.63
2022-12-19T05:23:58.945Z,40.83
2022-12-19T05:26:26.670Z,39.03
2022-12-19T05:28:54.102Z,40.67
2022-12-19T05:31:22.341Z,42.17
2022-12-19T05:33:50.454Z,39.85
2022-12-19T05:36:21.298Z,41.80
2022-12-19T05:38:52.491Z,40.42
2022-12-19T05:41:24.833Z,39.92
2022-12-19T05:43:55.683Z,41.08
2022-12-19T05:46:27.599Z,39.60
2022-12-19T05:48:55.624Z,40.53
2022-12-19T05:51:24.335Z,38.60
2022-12-19T05:53:52.175Z,38.92
2022-12-19T05:56:22.547Z,39.10
2022-12-19T05:58:51.186Z,39.70
2022-12-19T06:01:25.218Z,39.33
2022-12-19T06:03:55.346Z,39.00
2022-12-19T06:06:26.861Z,37.97
2022-12-19T06:09:00.183Z,41.45
2022-12-19T06:11:28.464Z,39.25
2022-12-19T06:13:56.967Z,39.38
2022-12-19T06:16:25.393Z,40.75
2022-12-19T06:18:54.468Z,40.13
2022-12-19T06:21:23.992Z,44.28
2022-12-19T06:23:52.001Z,40.67
2022-12-19T06:26:32.304Z,41.35
2022-12-19T06:28:59.864Z,42.90
2022-12-19T06:31:28.031Z,40.67
2022-12-19T06:33:58.140Z,42.47
2022-12-19T06:36:31.325Z,45.33
2022-12-19T06:39:00.186Z,41.58
2022-12-19T06:41:47.009Z,40.50
2022-12-19T06:44:17.510Z,39.50
2022-12-19T06:46:45.474Z,39.22
2022-12-19T06:49:13.306Z,39.65
2022-12-19T06:51:41.558Z,39.15
2022-12-19T06:54:14.180Z,38.95
2022-12-19T06:56:46.654Z,39.20
2022-12-19T06:59:17.258Z,36.50
2022-12-19T07:02:12.754Z,35.53
2022-12-19T07:04:49.881Z,37.95
2022-12-19T07:07:17.546Z,37.75
2022-12-19T07:09:47.094Z,38.65
2022-12-19T07:12:15.107Z,36.33
2022-12-19T07:14:43.738Z,39.40
2022-12-19T07:17:15.236Z,36.08
2022-12-19T07:19:43.539Z,36.78
2022-12-19T07:22:12.473Z,37.50
2022-12-19T07:24:40.010Z,36.95
2022-12-19T07:27:09.134Z,36.72
2022-12-19T07:29:37.412Z,36.08
2022-12-19T07:32:07.840Z,34.13
2022-12-19T07:34:35.826Z,32.95
2022-12-19T07:37:03.322Z,33.58
2022-12-19T07:39:30.855Z,31.33
2022-12-19T07:41:58.511Z,20.30
2022-12-19T07:44:26.062Z,21.02
2022-12-19T07:46:53.698Z,16.15
2022-12-19T07:49:22.938Z,16.02
2022-12-19T07:51:50.961Z,16.60
2022-12-19T07:54:18.852Z,16.05
2022-12-19T07:56:46.682Z,15.95
2022-12-19T07:59:14.546Z,14.65
2022-12-19T08:01:42.224Z,15.13
2022-12-19T08:04:10.162Z,16.25
2022-12-19T08:06:41.417Z,15.75
2022-12-19T08:09:10.197Z,15.18
2022-12-19T08:11:37.762Z,15.93
2022-12-19T08:14:05.758Z,15.85
2022-12-19T08:16:49.362Z,14.60
2022-12-19T08:19:27.171Z,17.92
2022-12-19T08:21:55.206Z,28.67
2022-12-19T08:24:22.708Z,26.25
2022-12-19T08:26:51.134Z,23.25
2022-12-19T08:29:19.077Z,31.00
2022-12-19T08:31:46.541Z,31.45
2022-12-19T08:34:14.165Z,17.58
2022-12-19T08:36:41.834Z,15.75
2022-12-19T08:39:11.908Z,18.00
2022-12-19T08:41:39.293Z,19.25
2022-12-19T08:44:07.474Z,16.65
2022-12-19T08:46:35.196Z,16.35
2022-12-19T08:49:02.681Z,15.98
2022-12-19T08:51:29.965Z,15.50
2022-12-19T08:53:57.848Z,16.05
2022-12-19T08:56:25.405Z,17.02
2022-12-19T09:00:01.286Z,16.58
2022-12-19T09:06:05.100Z,14.15
2022-12-19T09:07:46.895Z,17.15
2022-12-19T09:10:21.807Z,15.82
2022-12-19T09:12:55.869Z,15.50
2022-12-19T09:15:25.627Z,16.52
2022-12-19T09:17:52.838Z,23.33
2022-12-19T09:20:23.359Z,23.13
2022-12-19T09:22:51.197Z,20.55
2022-12-19T09:25:18.607Z,17.02
2022-12-19T09:28:25.323Z,16.98
2022-12-19T09:30:33.036Z,17.65
2022-12-19T09:33:02.683Z,22.80
2022-12-19T09:35:30.702Z,31.38
2022-12-19T09:38:00.353Z,22.55
2022-12-19T09:40:33.333Z,17.33
2022-12-19T09:43:41.299Z,19.10
2022-12-19T09:46:21.211Z,19.63
2022-12-19T09:48:55.509Z,16.90
2022-12-19T09:54:47.820Z,16.00
2022-12-19T09:57:35.762Z,16.08
2022-12-19T10:00:08.269Z,15.55
2022-12-19T10:02:56.256Z,16.98
2022-12-19T10:06:48.489Z,16.88
2022-12-19T10:09:08.675Z,16.02
2022-12-19T10:12:46.214Z,16.25
2022-12-19T10:15:20.459Z,17.05
2022-12-19T10:18:36.644Z,16.27
2022-12-19T10:21:18.820Z,17.70
2022-12-19T10:24:00.966Z,16.60
2022-12-19T10:26:51.313Z,15.82
2022-12-19T10:29:47.164Z,15.38
2022-12-19T10:32:48.924Z,17.20
2022-12-19T10:35:19.687Z,15.68
2022-12-19T10:38:08.271Z,16.17
2022-12-19T10:40:50.150Z,16.20
2022-12-19T10:43:51.152Z,16.73
2022-12-19T10:46:42.717Z,16.60
2022-12-19T10:49:25.657Z,16.38
2022-12-19T10:52:03.878Z,16.88
2022-12-19T10:54:39.945Z,15.00
2022-12-19T10:57:22.732Z,14.65
2022-12-19T11:00:20.419Z,15.80
2022-12-19T11:08:15.316Z,16.42
2022-12-19T11:20:41.753Z,15.20
2022-12-19T11:24:34.978Z,16.08
2022-12-19T11:29:16.461Z,15.23
2022-12-19T11:30:39.453Z,16.92
2022-12-19T11:30:47.107Z,18.13
2022-12-19T11:31:28.172Z,16.83
2022-12-19T11:32:43.737Z,16.08
2022-12-19T11:35:37.106Z,15.75
2022-12-19T11:38:09.205Z,16.33
2022-12-19T11:40:55.684Z,16.30
2022-12-19T11:43:47.234Z,16.38
2022-12-19T11:46:48.268Z,17.25
2022-12-19T11:49:27.944Z,16.45
2022-12-19T11:55:29.086Z,18.55
2022-12-19T11:57:56.488Z,16.48
2022-12-19T12:00:25.742Z,17.00
2022-12-19T12:03:13.863Z,16.98
2022-12-19T12:05:46.829Z,16.52
2022-12-19T12:13:04.137Z,16.73
2022-12-19T12:21:17.138Z,16.95
2022-12-19T12:25:27.664Z,16.38
2022-12-19T12:31:13.894Z,15.93
2022-12-19T12:31:23.789Z,16.38
2022-12-19T12:31:38.593Z,16.38
2022-12-19T12:31:40.507Z,16.83
2022-12-19T12:35:46.560Z,17.08
2022-12-19T12:38:54.225Z,17.17
2022-12-19T12:42:27.700Z,17.15
2022-12-19T12:44:59.007Z,16.83
2022-12-19T12:47:30.614Z,17.90
2022-12-19T12:50:14.167Z,19.00
2022-12-19T12:55:33.249Z,21.45
2022-12-19T12:58:01.254Z,18.80
2022-12-19T13:00:33.350Z,18.13
2022-12-19T13:03:31.687Z,21.98
2022-12-19T13:06:28.464Z,19.10
2022-12-19T13:09:23.730Z,18.38
2022-12-19T13:12:20.362Z,24.00
2022-12-19T13:14:52.679Z,25.00
2022-12-19T13:17:37.749Z,21.30
2022-12-19T13:20:08.534Z,20.50
2022-12-19T13:22:40.243Z,18.77
2022-12-19T13:25:38.326Z,18.83
2022-12-19T13:28:08.371Z,18.75
2022-12-19T13:31:23.892Z,18.63
2022-12-19T13:33:55.799Z,20.65
2022-12-19T13:39:50.087Z,17.95
2022-12-19T13:40:12.115Z,19.00
2022-12-19T13:43:17.414Z,19.52
2022-12-19T13:46:30.907Z,19.88
2022-12-19T13:49:09.815Z,19.35
2022-12-19T13:51:57.917Z,21.33
2022-12-19T13:57:41.292Z,17.58
2022-12-19T14:54:26.182Z,21.27
2022-12-19T14:56:11.276Z,20.65
2022-12-19T14:58:52.564Z,21.20
2022-12-19T15:01:27.204Z,22.95
2022-12-19T15:04:48.981Z,22.98
2022-12-19T15:07:30.348Z,21.77
2022-12-19T15:11:05.180Z,22.60
2022-12-19T15:14:49.362Z,21.98
2022-12-19T15:16:37.411Z,22.15
2022-12-19T15:19:13.045Z,19.65
2022-12-19T15:21:40.852Z,20.70
2022-12-19T15:24:11.791Z,19.75
2022-12-19T15:26:52.733Z,20.35
2022-12-19T15:29:22.680Z,19.33
2022-12-19T15:31:52.207Z,21.33
2022-12-19T15:34:37.293Z,23.67
2022-12-19T15:37:12.235Z,23.02
2022-12-19T15:39:42.632Z,19.65
2022-12-19T15:42:24.684Z,21.50
2022-12-19T15:44:56.026Z,22.67
2022-12-19T15:47:36.132Z,21.92
2022-12-19T15:50:24.039Z,20.60
2022-12-19T15:52:59.353Z,19.75
2022-12-19T15:55:30.262Z,20.60
2022-12-19T15:58:02.606Z,22.10
2022-12-19T16:00:35.756Z,24.65
2022-12-19T16:05:53.264Z,22.30
2022-12-19T16:08:26.217Z,20.35
2022-12-19T16:11:01.851Z,20.25
2022-12-19T16:13:35.770Z,20.52
2022-12-19T16:21:31.259Z,22.38
2022-12-19T16:24:01.186Z,21.63
2022-12-19T16:26:36.147Z,21.42
2022-12-19T16:29:05.414Z,21.65
2022-12-19T16:31:33.890Z,20.98
2022-12-19T16:34:02.566Z,19.60
2022-12-19T16:36:30.126Z,18.92
2022-12-19T16:39:01.731Z,19.42
2022-12-19T16:41:29.187Z,19.73
2022-12-19T16:43:56.790Z,23.13
2022-12-19T16:46:30.733Z,28.42
2022-12-19T16:48:58.803Z,20.40
2022-12-19T16:51:28.733Z,18.48
2022-12-19T16:54:00.908Z,21.15
2022-12-19T16:56:39.338Z,20.83
2022-12-19T16:59:17.561Z,21.85
2022-12-19T17:01:46.678Z,21.30
2022-12-19T17:04:22.388Z,20.17
2022-12-19T17:06:52.025Z,20.55
2022-12-19T17:09:23.280Z,19.35
2022-12-19T17:12:00.234Z,18.58
2022-12-19T17:14:32.228Z,17.92
2022-12-19T17:17:00.364Z,18.38
2022-12-19T17:19:39.054Z,19.38
2022-12-19T17:22:16.542Z,20.98
2022-12-19T17:24:47.023Z,22.42
2022-12-19T17:27:17.614Z,19.17
2022-12-19T17:29:47.407Z,17.98
2022-12-19T17:32:23.564Z,18.40
2022-12-19T17:34:52.343Z,20.67
2022-12-19T17:37:19.630Z,19.50
2022-12-19T17:39:48.539Z,24.70
2022-12-19T17:42:25.326Z,21.40
2022-12-19T17:44:52.680Z,16.65
2022-12-19T17:47:21.735Z,17.02
2022-12-19T17:49:49.706Z,16.20
2022-12-19T17:52:20.230Z,21.55
2022-12-19T17:54:48.000Z,20.67
2022-12-19T17:57:17.353Z,19.80
2022-12-19T17:59:47.093Z,18.63
2022-12-19T18:02:25.596Z,19.13
2022-12-19T18:04:53.942Z,18.45
2022-12-19T18:07:21.694Z,18.80
2022-12-19T18:09:49.266Z,21.48
2022-12-19T18:12:17.355Z,16.13
2022-12-19T18:14:44.856Z,17.13
2022-12-19T18:17:24.994Z,16.77
2022-12-19T18:19:52.973Z,15.65
2022-12-19T18:22:20.685Z,16.50
2022-12-19T18:24:48.064Z,17.38
2022-12-19T18:27:15.458Z,15.50
2022-12-19T18:29:42.879Z,16.75
2022-12-19T18:32:19.673Z,16.02
2022-12-19T18:35:32.884Z,14.48
2022-12-19T18:38:05.406Z,16.95
2022-12-19T18:40:32.900Z,15.43
2022-12-19T18:43:01.041Z,17.77
2022-12-19T18:45:44.338Z,17.27
2022-12-19T18:48:28.563Z,16.38
2022-12-19T18:50:58.557Z,16.77
2022-12-19T18:53:36.258Z,14.93
2022-12-19T18:56:06.890Z,16.23
2022-12-19T18:58:35.449Z,16.45
2022-12-19T19:01:10.327Z,17.08
2022-12-19T19:03:42.563Z,17.30
2022-12-19T19:06:35.753Z,17.85
2022-12-19T19:09:10.160Z,17.52
2022-12-19T19:11:39.035Z,18.70
2022-12-19T19:14:09.607Z,18.10
2022-12-19T19:16:40.287Z,20.70
2022-12-19T19:19:16.349Z,20.90
2022-12-19T19:21:50.265Z,32.80
2022-12-19T21:18:51.108Z,19.85
2022-12-19T21:21:28.496Z,18.10
2022-12-19T21:23:57.211Z,20.20
2022-12-19T21:26:27.588Z,19.83
2022-12-19T21:28:58.204Z,18.15
2022-12-19T21:31:32.724Z,17.88
2022-12-19T21:34:04.265Z,18.63
2022-12-19T21:36:34.429Z,18.50
2022-12-19T21:39:04.756Z,17.63
2022-12-19T21:41:34.238Z,18.55
2022-12-19T21:44:01.965Z,19.35
2022-12-19T21:46:35.375Z,19.38
2022-12-19T21:49:05.477Z,20.07
2022-12-19T21:51:40.057Z,18.60
2022-12-19T21:54:10.787Z,17.77
2022-12-19T21:56:46.677Z,19.17
2022-12-19T21:59:17.745Z,18.88
2022-12-19T22:01:55.154Z,18.05
2022-12-19T22:04:29.313Z,18.30
2022-12-19T22:06:57.017Z,18.20
2022-12-19T22:09:24.574Z,16.85
2022-12-19T22:11:53.576Z,17.80
2022-12-19T22:14:21.573Z,17.38
2022-12-19T22:16:49.843Z,17.75
2022-12-19T22:19:21.642Z,17.40
2022-12-19T22:21:52.221Z,17.88
2022-12-19T22:24:24.378Z,19.15
2022-12-19T22:27:00.208Z,17.77
2022-12-19T22:29:35.744Z,17.83
2022-12-19T22:32:07.752Z,17.25
2022-12-19T22:34:37.116Z,17.60
2022-12-19T22:37:33.702Z,18.02
2022-12-19T22:53:28.481Z,20.98
2022-12-19T23:17:50.643Z,17.70
2022-12-19T23:22:56.593Z,17.45
2022-12-19T23:31:06.744Z,18.92
2022-12-19T23:39:38.863Z,18.10
2022-12-19T23:50:42.463Z,19.45
2022-12-19T23:53:16.074Z,19.90
2022-12-19T23:55:50.647Z,19.17
2022-12-19T23:58:26.724Z,18.55
